createdAt,value
2022-08-29T00:00:25.648Z,20409.38
2022-08-29T00:03:00.064Z,20435.78
2022-08-29T00:05:33.713Z,20423.59
2022-08-29T00:08:05.221Z,20458.16
2022-08-29T00:10:36.275Z,20387.00
2022-08-29T00:13:07.237Z,20415.47
2022-08-29T00:15:44.782Z,20415.47
2022-08-29T00:18:14.705Z,20358.56
2022-08-29T00:20:44.826Z,20382.94
2022-08-29T00:23:15.152Z,20326.03
2022-08-29T00:25:43.683Z,20311.78
2022-08-29T00:28:12.560Z,20360.59
2022-08-29T00:30:41.513Z,20344.31
2022-08-29T00:33:10.410Z,20374.81
2022-08-29T00:35:42.459Z,20342.28
2022-08-29T00:38:16.541Z,20346.34
2022-08-29T00:40:51.767Z,20370.75
2022-08-29T00:43:26.613Z,20354.47
2022-08-29T00:46:11.552Z,20297.56
2022-08-29T00:48:42.234Z,20305.69
2022-08-29T00:51:18.060Z,20317.91
2022-08-29T00:53:53.957Z,20297.56
2022-08-29T00:56:23.208Z,20332.13
2022-08-29T00:58:56.906Z,20281.31
2022-08-29T01:01:25.807Z,20295.53
2022-08-29T01:03:55.660Z,20260.97
2022-08-29T01:06:27.437Z,20265.03
2022-08-29T01:08:58.310Z,20295.53
2022-08-29T01:11:49.346Z,20236.59
2022-08-29T01:14:21.084Z,20208.13
2022-08-29T01:16:53.129Z,20175.63
2022-08-29T01:19:38.621Z,20197.97
2022-08-29T01:22:34.931Z,20256.91
2022-08-29T01:25:09.354Z,20232.53
2022-08-29T01:27:43.270Z,20193.91
2022-08-29T01:30:15.123Z,20171.56
2022-08-29T01:32:43.898Z,20206.09
2022-08-29T01:35:13.477Z,20226.44
2022-08-29T01:37:44.257Z,20183.75
2022-08-29T01:40:15.356Z,20206.09
2022-08-29T01:42:44.380Z,20171.56
2022-08-29T01:45:13.251Z,20193.91
2022-08-29T01:47:41.860Z,20177.66
2022-08-29T01:50:15.280Z,20200.00
2022-08-29T01:52:44.355Z,20202.03
2022-08-29T01:55:14.099Z,20185.78
2022-08-29T01:57:42.675Z,20179.69
2022-08-29T02:00:12.997Z,20130.91
2022-08-29T02:02:43.318Z,20159.34
2022-08-29T02:05:12.048Z,20151.22
2022-08-29T02:07:40.988Z,20153.25
2022-08-29T02:10:10.289Z,20122.78
2022-08-29T02:12:40.324Z,20124.81
2022-08-29T02:15:09.229Z,20106.50
2022-08-29T02:17:37.992Z,20116.66
2022-08-29T02:20:09.017Z,20116.66
2022-08-29T02:22:39.410Z,20126.84
2022-08-29T02:25:24.377Z,20161.38
2022-08-29T02:27:54.510Z,20137.00
2022-08-29T02:30:25.773Z,20149.19
2022-08-29T02:32:54.259Z,20132.94
2022-08-29T02:35:22.907Z,20094.31
2022-08-29T02:37:53.043Z,20074.00
2022-08-29T02:40:25.963Z,20114.63
2022-08-29T02:43:02.701Z,20035.38
2022-08-29T02:45:31.695Z,20051.63
2022-08-29T02:48:00.921Z,20076.03
2022-08-29T02:50:29.619Z,20039.44
2022-08-29T02:52:58.521Z,20057.72
2022-08-29T02:55:27.177Z,20063.81
2022-08-29T02:57:55.484Z,20086.19
2022-08-29T03:00:28.887Z,20051.63
2022-08-29T03:02:58.440Z,20065.84
2022-08-29T03:05:33.236Z,20043.50
2022-08-29T03:08:03.291Z,20002.84
2022-08-29T03:10:31.616Z,20023.19
2022-08-29T03:13:00.832Z,20017.09
2022-08-29T03:15:30.771Z,19996.75
2022-08-29T03:17:59.269Z,19980.50
2022-08-29T03:20:27.704Z,20015.03
2022-08-29T03:22:57.290Z,20002.84
2022-08-29T03:25:26.998Z,19990.66
2022-08-29T03:27:55.215Z,19976.44
2022-08-29T03:30:24.246Z,19986.59
2022-08-29T03:32:54.648Z,19956.09
2022-08-29T03:35:23.961Z,19929.69
2022-08-29T03:37:55.489Z,19939.84
2022-08-29T03:40:25.464Z,19986.59
2022-08-29T03:42:54.825Z,19933.75
2022-08-29T03:45:25.535Z,19927.66
2022-08-29T03:47:55.447Z,19976.44
2022-08-29T03:50:24.375Z,19917.50
2022-08-29T03:52:53.050Z,19915.47
2022-08-29T03:55:21.657Z,19947.97
2022-08-29T03:57:50.157Z,19931.72
2022-08-29T04:00:20.761Z,19901.22
2022-08-29T04:02:50.640Z,19911.41
2022-08-29T04:05:20.964Z,19907.31
2022-08-29T04:07:52.440Z,19913.44
2022-08-29T04:10:24.031Z,19917.50
2022-08-29T04:12:54.854Z,19895.13
2022-08-29T04:15:25.010Z,19891.06
2022-08-29T04:17:55.325Z,19874.81
2022-08-29T04:20:33.375Z,19840.25
2022-08-29T04:23:01.909Z,19860.59
2022-08-29T04:25:37.134Z,19856.53
2022-08-29T04:28:08.110Z,19891.06
2022-08-29T04:30:39.232Z,19850.41
2022-08-29T04:33:08.127Z,19866.69
2022-08-29T04:35:42.283Z,19858.56
2022-08-29T04:38:10.659Z,19807.75
2022-08-29T04:40:40.629Z,19840.25
2022-08-29T04:43:09.463Z,19897.16
2022-08-29T04:45:40.367Z,19880.91
2022-08-29T04:48:10.903Z,19880.91
2022-08-29T04:50:39.555Z,19876.84
2022-08-29T04:53:09.175Z,19866.69
2022-08-29T04:55:37.469Z,19842.28
2022-08-29T04:58:06.453Z,19856.53
2022-08-29T05:00:38.434Z,19850.41
2022-08-29T05:03:07.874Z,19821.97
2022-08-29T05:05:36.656Z,19858.56
2022-08-29T05:08:05.185Z,19838.22
2022-08-29T05:10:34.930Z,19897.16
2022-08-29T05:13:03.159Z,19939.84
2022-08-29T05:15:31.544Z,19911.41
2022-08-29T05:18:02.675Z,19915.47
2022-08-29T05:20:31.670Z,19941.88
2022-08-29T05:23:00.680Z,20008.94
2022-08-29T05:25:28.966Z,20010.97
2022-08-29T05:28:00.190Z,20037.41
2022-08-29T05:30:34.747Z,20102.44
2022-08-29T05:33:04.510Z,20078.06
2022-08-29T05:35:33.512Z,20151.22
2022-08-29T05:38:08.574Z,20163.41
2022-08-29T05:40:38.661Z,20185.78
2022-08-29T05:43:10.086Z,20175.63
2022-08-29T05:45:40.509Z,20191.88
2022-08-29T05:48:10.941Z,20242.69
2022-08-29T05:50:41.864Z,20220.34
2022-08-29T05:53:10.527Z,20269.13
2022-08-29T05:55:41.713Z,20299.59
2022-08-29T05:58:11.744Z,20271.16
2022-08-29T06:00:40.961Z,20309.75
2022-08-29T06:03:09.366Z,20368.72
2022-08-29T06:05:38.223Z,20409.38
2022-08-29T06:08:07.365Z,20441.88
2022-08-29T06:10:35.864Z,20409.38
2022-08-29T06:13:04.064Z,20431.72
2022-08-29T06:15:33.908Z,20421.56
2022-08-29T06:18:02.205Z,20399.19
2022-08-29T06:20:30.491Z,20415.47
2022-08-29T06:22:58.690Z,20397.16
2022-08-29T06:25:39.715Z,20401.22
2022-08-29T06:28:09.063Z,20450.03
2022-08-29T06:30:38.723Z,20445.94
2022-08-29T06:33:07.020Z,20429.69
2022-08-29T06:35:35.272Z,20474.41
2022-08-29T06:38:03.458Z,20456.13
2022-08-29T06:40:31.749Z,20460.19
2022-08-29T06:43:00.283Z,20474.41
2022-08-29T06:45:28.608Z,20458.16
2022-08-29T06:47:58.258Z,20429.69
2022-08-29T06:50:26.796Z,20452.06
2022-08-29T06:52:55.756Z,20470.34
2022-08-29T06:55:24.431Z,20447.97
2022-08-29T06:57:52.648Z,20504.91
2022-08-29T07:00:21.996Z,20454.09
2022-08-29T07:02:52.463Z,20549.63
2022-08-29T07:05:24.407Z,20519.13
2022-08-29T07:07:53.786Z,20519.13
2022-08-29T07:10:22.959Z,20582.16
2022-08-29T07:12:52.585Z,20567.91
2022-08-29T07:15:23.157Z,20606.53
2022-08-29T07:17:54.366Z,20588.25
2022-08-29T07:20:27.598Z,20630.94
2022-08-29T07:22:55.896Z,20716.31
2022-08-29T07:25:24.854Z,20765.09
2022-08-29T07:27:53.523Z,20891.13
2022-08-29T07:30:23.009Z,20968.38
2022-08-29T07:32:51.692Z,21047.69
2022-08-29T07:35:29.820Z,21017.19
2022-08-29T07:38:02.175Z,20984.66
2022-08-29T07:40:30.694Z,20939.94
2022-08-29T07:42:59.341Z,20895.19
2022-08-29T07:45:27.612Z,20913.50
2022-08-29T07:47:55.825Z,20856.56
2022-08-29T07:50:24.041Z,20828.13
2022-08-29T07:52:52.601Z,20846.41
2022-08-29T07:55:22.951Z,20854.53
2022-08-29T07:57:53.021Z,20834.22
2022-08-29T08:00:22.207Z,20807.78
2022-08-29T08:02:51.365Z,20864.72
2022-08-29T08:05:19.783Z,20866.75
2022-08-29T08:07:55.554Z,20842.34
2022-08-29T08:10:25.844Z,20887.06
2022-08-29T08:12:54.124Z,20899.28
2022-08-29T08:15:22.890Z,20911.47
2022-08-29T08:17:51.144Z,20907.41
2022-08-29T08:20:19.597Z,20883.00
2022-08-29T08:22:47.796Z,20962.28
2022-08-29T08:25:16.007Z,20956.19
2022-08-29T08:27:45.539Z,20962.28
2022-08-29T08:30:15.120Z,20941.97
2022-08-29T08:32:46.912Z,20982.63
2022-08-29T08:35:22.540Z,20976.53
2022-08-29T08:37:51.128Z,21047.69
2022-08-29T08:40:28.086Z,21027.34
2022-08-29T08:43:03.569Z,21118.84
2022-08-29T08:45:38.640Z,21076.13
2022-08-29T08:48:13.761Z,21092.41
2022-08-29T08:50:54.319Z,21114.75
2022-08-29T08:53:33.088Z,21090.38
2022-08-29T08:56:06.915Z,21139.16
2022-08-29T08:58:49.978Z,21153.41
2022-08-29T09:01:23.962Z,21149.31
2022-08-29T09:04:28.041Z,21165.59
2022-08-29T09:07:15.305Z,21228.63
2022-08-29T09:10:04.830Z,21259.13
2022-08-29T09:12:54.442Z,21257.09
2022-08-29T09:15:32.923Z,21289.59
2022-08-29T09:18:06.516Z,21328.25
2022-08-29T09:20:38.409Z,21273.34
2022-08-29T09:23:28.312Z,21261.16
2022-08-29T09:25:56.852Z,21257.09
2022-08-29T09:28:25.199Z,21332.31
2022-08-29T09:31:27.404Z,21342.47
2022-08-29T09:33:58.457Z,21370.94
2022-08-29T09:36:53.151Z,21377.03
2022-08-29T09:39:24.869Z,21431.94
2022-08-29T09:41:57.416Z,21472.59
2022-08-29T09:44:30.564Z,21474.63
2022-08-29T09:47:12.984Z,21505.13
2022-08-29T09:50:01.784Z,21509.19
2022-08-29T09:52:30.000Z,21492.94
2022-08-29T09:54:58.926Z,21499.03
2022-08-29T09:57:31.739Z,21551.91
2022-08-29T10:00:15.163Z,21580.34
2022-08-29T10:02:50.694Z,21523.44
2022-08-29T10:05:41.738Z,21476.66
2022-08-29T10:08:31.202Z,21470.56
2022-08-29T10:11:03.325Z,21458.38
2022-08-29T10:13:44.190Z,21482.75
2022-08-29T10:16:26.093Z,21521.41
2022-08-29T10:19:01.997Z,21537.66
2022-08-29T10:21:47.109Z,21602.72
2022-08-29T10:24:55.108Z,21675.94
2022-08-29T10:27:38.144Z,21712.53
2022-08-29T10:30:12.227Z,21706.44
2022-08-29T10:33:04.587Z,21663.72
2022-08-29T10:35:40.942Z,21608.81
2022-08-29T10:38:23.224Z,21627.13
2022-08-29T10:41:02.861Z,21657.63
2022-08-29T10:43:41.229Z,21655.59
2022-08-29T10:46:37.340Z,21663.72
2022-08-29T10:49:23.436Z,21635.25
2022-08-29T10:52:08.123Z,21635.25
2022-08-29T10:54:53.903Z,21637.28
2022-08-29T10:57:43.126Z,21606.78
2022-08-29T11:00:16.993Z,21584.44
2022-08-29T11:02:54.711Z,21639.31
2022-08-29T11:05:29.326Z,21710.50
2022-08-29T11:08:06.268Z,21777.59
2022-08-29T11:10:41.815Z,21741.00
2022-08-29T11:13:19.726Z,21814.19
2022-08-29T11:16:01.899Z,21830.47
2022-08-29T11:18:37.619Z,21852.81
2022-08-29T11:21:30.202Z,21867.06
2022-08-29T11:24:03.190Z,21928.06
2022-08-29T11:26:51.670Z,21913.84
2022-08-29T11:29:33.461Z,21917.91
2022-08-29T11:32:13.146Z,21907.72
2022-08-29T11:35:01.040Z,21895.53
2022-08-29T11:38:05.746Z,21869.09
2022-08-29T11:43:53.518Z,21921.97
2022-08-29T11:46:41.634Z,21968.72
2022-08-29T11:49:37.211Z,21901.63
2022-08-29T11:52:25.383Z,21919.94
2022-08-29T11:55:38.002Z,21993.13
2022-08-29T11:58:46.180Z,22021.59
2022-08-29T12:02:00.507Z,21978.91
2022-08-29T12:04:58.152Z,21999.25
2022-08-29T12:07:39.560Z,21991.09
2022-08-29T12:10:14.508Z,22033.81
2022-08-29T12:12:49.129Z,22029.75
2022-08-29T12:15:54.878Z,21982.97
2022-08-29T12:18:50.727Z,22003.31
2022-08-29T12:21:47.640Z,22056.19
2022-08-29T12:24:57.189Z,22041.94
2022-08-29T12:28:02.699Z,22107.00
2022-08-29T12:30:38.630Z,22070.41
2022-08-29T12:33:25.444Z,22019.56
2022-08-29T12:36:21.080Z,22021.59
2022-08-29T12:39:11.506Z,22005.34
2022-08-29T12:42:14.929Z,21976.88
2022-08-29T12:44:46.843Z,21958.56
2022-08-29T12:47:29.423Z,21974.84
2022-08-29T12:50:05.290Z,21948.41
2022-08-29T12:52:39.066Z,21991.09
2022-08-29T12:55:26.825Z,21987.03
2022-08-29T12:57:59.093Z,21993.13
2022-08-29T13:00:31.586Z,21962.63
2022-08-29T13:03:05.358Z,21919.94
2022-08-29T13:05:45.840Z,21812.16
2022-08-29T13:08:27.037Z,21810.13
2022-08-29T13:11:00.718Z,21741.00
2022-08-29T13:13:30.136Z,21747.09
2022-08-29T13:16:02.150Z,21736.94
2022-08-29T13:18:33.758Z,21659.66
2022-08-29T13:21:22.001Z,21663.72
2022-08-29T13:24:03.154Z,21649.50
2022-08-29T13:26:34.181Z,21745.06
2022-08-29T13:29:26.878Z,21795.88
2022-08-29T13:32:23.040Z,21867.06
2022-08-29T13:35:07.187Z,21879.25
2022-08-29T13:37:40.842Z,21889.44
2022-08-29T13:40:36.785Z,21897.56
2022-08-29T13:43:07.522Z,21980.94
2022-08-29T13:45:37.143Z,22015.50
2022-08-29T13:48:20.350Z,22027.72
2022-08-29T13:50:48.716Z,21995.16
2022-08-29T13:53:18.265Z,21909.75
2022-08-29T13:55:46.720Z,21848.75
2022-08-29T13:58:15.722Z,21942.31
2022-08-29T14:00:44.428Z,21899.59
2022-08-29T14:03:16.866Z,21911.78
2022-08-29T14:05:45.472Z,21917.91
2022-08-29T14:08:14.957Z,21871.13
2022-08-29T14:10:44.892Z,21844.69
2022-08-29T14:13:13.326Z,21826.41
2022-08-29T14:15:41.736Z,21814.19
2022-08-29T14:18:10.260Z,21775.56
2022-08-29T14:20:39.042Z,21818.25
2022-08-29T14:23:07.656Z,21797.94
2022-08-29T14:25:35.937Z,21787.75
2022-08-29T14:28:05.935Z,21753.19
2022-08-29T14:30:34.181Z,21730.81
2022-08-29T14:33:02.409Z,21726.75
2022-08-29T14:35:31.850Z,21728.78
2022-08-29T14:38:01.335Z,21767.44
2022-08-29T14:40:30.764Z,21793.84
2022-08-29T14:43:00.022Z,21877.22
2022-08-29T14:45:32.146Z,21832.50
2022-08-29T14:48:00.541Z,21822.31
2022-08-29T14:50:29.391Z,21818.25
2022-08-29T14:52:57.671Z,21789.78
2022-08-29T14:55:26.682Z,21773.53
2022-08-29T14:57:55.219Z,21761.31
2022-08-29T15:00:26.325Z,21773.53
2022-08-29T15:02:56.494Z,21777.59
2022-08-29T15:05:25.300Z,21716.59
2022-08-29T15:07:53.942Z,21716.59
2022-08-29T15:10:25.817Z,21704.38
2022-08-29T15:12:54.496Z,21706.44
2022-08-29T15:15:29.053Z,21749.13
2022-08-29T15:18:00.962Z,21720.66
2022-08-29T15:20:36.175Z,21708.47
2022-08-29T15:23:05.936Z,21720.66
2022-08-29T15:25:34.764Z,21704.38
2022-08-29T15:28:05.730Z,21702.34
2022-08-29T15:30:35.037Z,21714.56
2022-08-29T15:33:05.070Z,21724.72
2022-08-29T15:35:34.200Z,21736.94
2022-08-29T15:38:02.619Z,21702.34
2022-08-29T15:40:31.031Z,21771.50
2022-08-29T15:42:59.370Z,21702.34
2022-08-29T15:45:27.911Z,21655.59
2022-08-29T15:47:59.771Z,21690.16
2022-08-29T15:50:29.946Z,21651.53
2022-08-29T15:52:58.218Z,21637.28
2022-08-29T15:55:26.433Z,21730.81
2022-08-29T15:57:54.877Z,21720.66
2022-08-29T16:00:30.476Z,21661.69
2022-08-29T16:03:02.546Z,21616.97
2022-08-29T16:05:34.064Z,21653.56
2022-08-29T16:08:02.914Z,21602.72
2022-08-29T16:10:32.498Z,21639.31
2022-08-29T16:13:01.417Z,21555.97
2022-08-29T16:15:31.368Z,21537.66
2022-08-29T16:18:00.806Z,21527.50
2022-08-29T16:20:32.013Z,21480.72
2022-08-29T16:23:01.506Z,21505.13
2022-08-29T16:25:31.070Z,21558.00
2022-08-29T16:28:01.191Z,21553.94
2022-08-29T16:30:30.185Z,21525.47
2022-08-29T16:32:58.812Z,21558.00
2022-08-29T16:35:27.512Z,21600.69
2022-08-29T16:38:02.120Z,21631.19
2022-08-29T16:40:31.430Z,21568.16
2022-08-29T16:42:59.681Z,21543.75
2022-08-29T16:45:27.908Z,21584.44
2022-08-29T16:47:57.715Z,21564.09
2022-08-29T16:50:27.327Z,21527.50
2022-08-29T16:52:57.327Z,21492.94
2022-08-29T16:55:26.375Z,21484.78
2022-08-29T16:58:12.170Z,21507.16
2022-08-29T17:00:41.703Z,21462.44
2022-08-29T17:03:10.150Z,21452.25
2022-08-29T17:05:38.589Z,21450.22
2022-08-29T17:08:07.067Z,21448.19
2022-08-29T17:10:34.120Z,21383.13
2022-08-29T17:13:01.286Z,21403.47
2022-08-29T17:15:28.402Z,21318.06
2022-08-29T17:17:56.639Z,21350.59
2022-08-29T17:20:24.931Z,21322.13
2022-08-29T17:22:54.440Z,21275.38
2022-08-29T17:25:24.800Z,21283.50
2022-08-29T17:28:16.783Z,21297.75
2022-08-29T17:30:41.754Z,21261.16
2022-08-29T17:33:11.717Z,21267.25
2022-08-29T17:35:40.299Z,21261.16
2022-08-29T17:38:08.958Z,21246.91
2022-08-29T17:40:40.377Z,21192.03
2022-08-29T17:43:11.089Z,21155.44
2022-08-29T17:45:40.582Z,21181.84
2022-08-29T17:48:09.402Z,21129.00
2022-08-29T17:50:37.663Z,21169.66
2022-08-29T17:53:06.638Z,21183.88
2022-08-29T17:55:34.923Z,21165.59
2022-08-29T17:58:04.810Z,21120.88
2022-08-29T18:00:33.910Z,21080.19
2022-08-29T18:03:02.212Z,21070.03
2022-08-29T18:05:30.540Z,21047.69
2022-08-29T18:07:58.835Z,21086.31
2022-08-29T18:10:27.410Z,21019.22
2022-08-29T18:12:55.591Z,21013.13
2022-08-29T18:15:25.800Z,21019.22
2022-08-29T18:17:54.014Z,20992.78
2022-08-29T18:20:23.277Z,20984.66
2022-08-29T18:22:51.524Z,20962.28
2022-08-29T18:25:22.372Z,20992.78
2022-08-29T18:27:51.630Z,20970.41
2022-08-29T18:30:21.122Z,20970.41
2022-08-29T18:32:50.846Z,20939.94
2022-08-29T18:35:19.992Z,20929.75
2022-08-29T18:37:48.262Z,20960.25
2022-08-29T18:40:16.729Z,20903.34
2022-08-29T18:42:44.918Z,20952.13
2022-08-29T18:45:14.035Z,20919.59
2022-08-29T18:47:42.312Z,20929.75
2022-08-29T18:50:30.191Z,20878.94
2022-08-29T18:52:58.405Z,20901.31
2022-08-29T18:55:27.319Z,20862.69
2022-08-29T18:57:56.680Z,20866.75
2022-08-29T19:00:26.456Z,20870.81
2022-08-29T19:02:56.372Z,20866.75
2022-08-29T19:05:31.113Z,20850.47
2022-08-29T19:08:00.951Z,20854.53
2022-08-29T19:10:31.681Z,20858.59
2022-08-29T19:13:00.665Z,20826.09
2022-08-29T19:15:30.862Z,20840.31
2022-08-29T19:17:59.106Z,20807.78
2022-08-29T19:20:47.082Z,20807.78
2022-08-29T19:23:16.656Z,20777.28
2022-08-29T19:25:45.629Z,20765.09
2022-08-29T19:28:15.261Z,20785.44
2022-08-29T19:30:44.530Z,20756.97
2022-08-29T19:33:15.299Z,20750.88
2022-08-29T19:35:48.978Z,20712.25
2022-08-29T19:38:17.497Z,20695.97
2022-08-29T19:40:46.447Z,20685.81
2022-08-29T19:43:15.382Z,20704.13
2022-08-29T19:45:44.797Z,20653.28
2022-08-29T19:48:15.028Z,20704.13
2022-08-29T19:50:47.840Z,20667.53
2022-08-29T19:53:26.038Z,20667.53
2022-08-29T19:55:56.538Z,20643.13
2022-08-29T19:58:31.483Z,20639.06
2022-08-29T20:01:02.646Z,20667.53
2022-08-29T20:03:32.606Z,20606.53
2022-08-29T20:06:07.560Z,20606.53
2022-08-29T20:08:36.911Z,20588.25
2022-08-29T20:11:06.621Z,20561.81
2022-08-29T20:13:36.335Z,20584.19
2022-08-29T20:16:14.155Z,20602.47
2022-08-29T20:18:47.131Z,20598.41
2022-08-29T20:21:20.346Z,20598.41
2022-08-29T20:23:51.433Z,20584.19
2022-08-29T20:26:23.567Z,20610.59
2022-08-29T20:28:54.095Z,20569.94
2022-08-29T20:31:23.299Z,20545.56
2022-08-29T20:33:52.141Z,20576.03
2022-08-29T20:36:41.713Z,20537.44
2022-08-29T20:39:13.081Z,20525.22
2022-08-29T20:41:41.347Z,20537.44
2022-08-29T20:44:10.078Z,20539.47
2022-08-29T20:46:43.200Z,20484.56
2022-08-29T20:49:13.983Z,20504.91
2022-08-29T20:51:44.966Z,20478.47
2022-08-29T20:54:14.955Z,20472.38
2022-08-29T20:56:43.459Z,20486.59
2022-08-29T20:59:12.519Z,20450.03
2022-08-29T21:01:41.650Z,20407.34
2022-08-29T21:04:28.500Z,20454.09
2022-08-29T21:07:01.636Z,20433.75
2022-08-29T21:09:30.068Z,20433.75
2022-08-29T21:11:58.761Z,20378.88
2022-08-29T21:14:28.206Z,20399.19
2022-08-29T21:16:57.943Z,20401.22
2022-08-29T21:19:29.952Z,20391.06
2022-08-29T21:22:01.895Z,20354.47
2022-08-29T21:24:30.814Z,20372.78
2022-08-29T21:26:59.389Z,20362.63
2022-08-29T21:29:28.402Z,20346.34
2022-08-29T21:31:57.087Z,20350.41
2022-08-29T21:34:25.403Z,20334.16
2022-08-29T21:36:54.385Z,20313.84
2022-08-29T21:39:28.090Z,20315.88
2022-08-29T21:42:01.459Z,20311.78
2022-08-29T21:44:31.569Z,20305.69
2022-08-29T21:46:59.918Z,20305.69
2022-08-29T21:49:30.318Z,20265.03
2022-08-29T21:51:58.475Z,20254.88
2022-08-29T21:54:28.641Z,20234.56
2022-08-29T21:56:56.939Z,20256.91
2022-08-29T21:59:28.078Z,20244.72
2022-08-29T22:01:56.958Z,20232.53
2022-08-29T22:04:29.028Z,20244.72
2022-08-29T22:06:59.652Z,20222.38
2022-08-29T22:09:30.356Z,20224.41
2022-08-29T22:11:59.997Z,20204.06
2022-08-29T22:14:42.575Z,20193.91
2022-08-29T22:17:10.777Z,20224.41
2022-08-29T22:19:39.588Z,20208.13
2022-08-29T22:22:09.615Z,20195.94
2022-08-29T22:24:39.434Z,20210.16
2022-08-29T22:27:08.028Z,20244.72
2022-08-29T22:29:37.450Z,20232.53
2022-08-29T22:32:06.497Z,20187.81
2022-08-29T22:34:34.918Z,20204.06
2022-08-29T22:37:03.254Z,20269.13
2022-08-29T22:39:31.556Z,20244.72
2022-08-29T22:42:01.141Z,20252.84
2022-08-29T22:44:59.941Z,20248.78
2022-08-29T22:47:18.946Z,20234.56
2022-08-29T22:49:47.215Z,20193.91
2022-08-29T22:52:15.489Z,20171.56
2022-08-29T22:54:43.814Z,20157.31
2022-08-29T22:57:17.898Z,20173.59
2022-08-29T22:59:48.624Z,20195.94
2022-08-29T23:02:18.380Z,20130.91
2022-08-29T23:04:47.498Z,20112.59
2022-08-29T23:07:15.754Z,20080.09
2022-08-29T23:09:45.394Z,20067.88
2022-08-29T23:12:15.721Z,20114.63
2022-08-29T23:14:46.389Z,20067.88
2022-08-29T23:17:16.399Z,20074.00
2022-08-29T23:19:45.755Z,20061.78
2022-08-29T23:22:15.015Z,20027.25
2022-08-29T23:24:58.471Z,20043.50
2022-08-29T23:27:30.545Z,20037.41
2022-08-29T23:30:00.032Z,20057.72
2022-08-29T23:32:29.562Z,20017.09
2022-08-29T23:34:57.961Z,20090.25
2022-08-29T23:37:26.700Z,20088.22
2022-08-29T23:39:55.387Z,20010.97
2022-08-29T23:42:23.596Z,19990.66
2022-08-29T23:44:53.186Z,19964.25
2022-08-29T23:47:21.393Z,19964.25
2022-08-29T23:49:49.713Z,19982.53
2022-08-29T23:52:17.967Z,19954.06
2022-08-29T23:54:46.228Z,19956.09
2022-08-29T23:57:14.757Z,19956.09
